sensor_id;sensor_type;location;lat;lon;timestamp;P1;durP1;ratioP1;P2;durP2;ratioP2
56477;SDS011;42382;53.210;5.772;2023-07-24T00:02:14;10.13;;;3.85;;
56477;SDS011;42382;53.210;5.772;2023-07-24T00:04:39;12.60;;;5.15;;
56477;SDS011;42382;53.210;5.772;2023-07-24T00:07:05;14.23;;;5.30;;
56477;SDS011;42382;53.210;5.772;2023-07-24T00:09:31;14.38;;;4.75;;
56477;SDS011;42382;53.210;5.772;2023-07-24T00:11:57;13.90;;;5.60;;
56477;SDS011;42382;53.210;5.772;2023-07-24T00:14:22;14.57;;;4.13;;
56477;SDS011;42382;53.210;5.772;2023-07-24T00:16:48;9.95;;;4.30;;
56477;SDS011;42382;53.210;5.772;2023-07-24T00:19:14;9.68;;;4.50;;
56477;SDS011;42382;53.210;5.772;2023-07-24T00:21:39;11.25;;;4.45;;
56477;SDS011;42382;53.210;5.772;2023-07-24T00:24:05;14.45;;;4.70;;
56477;SDS011;42382;53.210;5.772;2023-07-24T00:26:31;11.98;;;4.72;;
56477;SDS011;42382;53.210;5.772;2023-07-24T00:28:56;11.23;;;4.10;;
56477;SDS011;42382;53.210;5.772;2023-07-24T00:31:22;13.10;;;4.10;;
56477;SDS011;42382;53.210;5.772;2023-07-24T00:33:47;12.80;;;3.85;;
56477;SDS011;42382;53.210;5.772;2023-07-24T00:36:13;11.38;;;4.88;;
56477;SDS011;42382;53.210;5.772;2023-07-24T00:38:39;11.00;;;3.90;;
56477;SDS011;42382;53.210;5.772;2023-07-24T00:41:04;13.48;;;3.78;;
56477;SDS011;42382;53.210;5.772;2023-07-24T00:43:30;12.40;;;4.05;;
56477;SDS011;42382;53.210;5.772;2023-07-24T00:45:56;9.88;;;4.50;;
56477;SDS011;42382;53.210;5.772;2023-07-24T00:48:22;10.90;;;3.78;;
56477;SDS011;42382;53.210;5.772;2023-07-24T00:50:48;12.07;;;4.55;;
56477;SDS011;42382;53.210;5.772;2023-07-24T00:53:15;8.48;;;3.65;;
56477;SDS011;42382;53.210;5.772;2023-07-24T00:55:41;12.85;;;3.88;;
56477;SDS011;42382;53.210;5.772;2023-07-24T00:58:07;11.40;;;4.20;;
56477;SDS011;42382;53.210;5.772;2023-07-24T01:00:37;10.38;;;3.63;;
56477;SDS011;42382;53.210;5.772;2023-07-24T01:03:05;11.68;;;5.07;;
56477;SDS011;42382;53.210;5.772;2023-07-24T01:05:31;8.95;;;3.55;;
56477;SDS011;42382;53.210;5.772;2023-07-24T01:07:56;9.85;;;4.50;;
56477;SDS011;42382;53.210;5.772;2023-07-24T01:10:22;13.02;;;4.60;;
56477;SDS011;42382;53.210;5.772;2023-07-24T01:12:53;13.77;;;4.82;;
56477;SDS011;42382;53.210;5.772;2023-07-24T01:15:31;10.30;;;4.38;;
56477;SDS011;42382;53.210;5.772;2023-07-24T01:18:00;12.55;;;4.70;;
56477;SDS011;42382;53.210;5.772;2023-07-24T01:20:28;15.48;;;4.90;;
56477;SDS011;42382;53.210;5.772;2023-07-24T01:28:27;10.43;;;4.47;;
56477;SDS011;42382;53.210;5.772;2023-07-24T01:30:53;12.63;;;4.88;;
56477;SDS011;42382;53.210;5.772;2023-07-24T01:33:20;9.98;;;4.18;;
56477;SDS011;42382;53.210;5.772;2023-07-24T01:35:48;9.73;;;4.22;;
56477;SDS011;42382;53.210;5.772;2023-07-24T01:38:17;15.70;;;5.25;;
56477;SDS011;42382;53.210;5.772;2023-07-24T01:40:43;12.95;;;4.70;;
56477;SDS011;42382;53.210;5.772;2023-07-24T01:43:09;13.88;;;6.30;;
56477;SDS011;42382;53.210;5.772;2023-07-24T01:45:35;14.43;;;5.85;;
56477;SDS011;42382;53.210;5.772;2023-07-24T01:48:01;13.60;;;5.22;;
56477;SDS011;42382;53.210;5.772;2023-07-24T01:50:30;14.13;;;5.22;;
56477;SDS011;42382;53.210;5.772;2023-07-24T01:52:56;17.92;;;5.03;;
56477;SDS011;42382;53.210;5.772;2023-07-24T01:55:22;12.77;;;5.78;;
56477;SDS011;42382;53.210;5.772;2023-07-24T01:57:48;12.38;;;5.28;;
56477;SDS011;42382;53.210;5.772;2023-07-24T02:00:14;13.93;;;5.93;;
56477;SDS011;42382;53.210;5.772;2023-07-24T02:02:39;13.77;;;5.90;;
56477;SDS011;42382;53.210;5.772;2023-07-24T02:05:05;12.07;;;5.93;;
56477;SDS011;42382;53.210;5.772;2023-07-24T02:07:31;14.63;;;5.80;;
56477;SDS011;42382;53.210;5.772;2023-07-24T02:09:56;15.77;;;6.03;;
56477;SDS011;42382;53.210;5.772;2023-07-24T02:12:22;14.32;;;5.30;;
56477;SDS011;42382;53.210;5.772;2023-07-24T02:14:48;13.15;;;5.65;;
56477;SDS011;42382;53.210;5.772;2023-07-24T02:17:16;11.30;;;5.00;;
56477;SDS011;42382;53.210;5.772;2023-07-24T02:19:42;16.73;;;5.90;;
56477;SDS011;42382;53.210;5.772;2023-07-24T02:22:08;14.02;;;6.35;;
56477;SDS011;42382;53.210;5.772;2023-07-24T02:24:33;12.77;;;6.38;;
56477;SDS011;42382;53.210;5.772;2023-07-24T02:26:59;12.65;;;5.15;;
56477;SDS011;42382;53.210;5.772;2023-07-24T02:29:25;16.27;;;6.32;;
56477;SDS011;42382;53.210;5.772;2023-07-24T02:31:52;15.75;;;5.95;;
56477;SDS011;42382;53.210;5.772;2023-07-24T02:34:19;15.52;;;5.72;;
56477;SDS011;42382;53.210;5.772;2023-07-24T02:36:49;12.30;;;5.57;;
56477;SDS011;42382;53.210;5.772;2023-07-24T02:39:15;14.77;;;5.47;;
56477;SDS011;42382;53.210;5.772;2023-07-24T02:41:41;16.17;;;6.45;;
56477;SDS011;42382;53.210;5.772;2023-07-24T02:44:06;12.88;;;6.18;;
56477;SDS011;42382;53.210;5.772;2023-07-24T02:46:32;13.70;;;5.57;;
56477;SDS011;42382;53.210;5.772;2023-07-24T02:48:58;12.52;;;6.18;;
56477;SDS011;42382;53.210;5.772;2023-07-24T02:51:23;13.93;;;6.07;;
56477;SDS011;42382;53.210;5.772;2023-07-24T02:53:49;9.52;;;4.55;;
56477;SDS011;42382;53.210;5.772;2023-07-24T02:56:15;15.13;;;5.10;;
56477;SDS011;42382;53.210;5.772;2023-07-24T02:58:40;21.23;;;6.05;;
56477;SDS011;42382;53.210;5.772;2023-07-24T03:01:06;14.27;;;5.78;;
56477;SDS011;42382;53.210;5.772;2023-07-24T03:03:33;18.02;;;7.07;;
56477;SDS011;42382;53.210;5.772;2023-07-24T03:05:59;15.90;;;6.32;;
56477;SDS011;42382;53.210;5.772;2023-07-24T03:08:25;14.48;;;6.43;;
56477;SDS011;42382;53.210;5.772;2023-07-24T03:10:51;14.85;;;6.60;;
56477;SDS011;42382;53.210;5.772;2023-07-24T03:13:16;12.82;;;6.20;;
56477;SDS011;42382;53.210;5.772;2023-07-24T03:15:42;12.27;;;6.18;;
56477;SDS011;42382;53.210;5.772;2023-07-24T03:18:07;15.90;;;5.97;;
56477;SDS011;42382;53.210;5.772;2023-07-24T03:20:33;12.73;;;5.97;;
56477;SDS011;42382;53.210;5.772;2023-07-24T03:22:59;16.75;;;6.97;;
56477;SDS011;42382;53.210;5.772;2023-07-24T03:25:24;19.92;;;6.80;;
56477;SDS011;42382;53.210;5.772;2023-07-24T03:27:50;18.17;;;6.40;;
56477;SDS011;42382;53.210;5.772;2023-07-24T03:30:16;12.52;;;5.35;;
56477;SDS011;42382;53.210;5.772;2023-07-24T03:32:41;17.55;;;6.03;;
56477;SDS011;42382;53.210;5.772;2023-07-24T03:35:07;14.80;;;5.68;;
56477;SDS011;42382;53.210;5.772;2023-07-24T03:37:36;14.07;;;5.78;;
56477;SDS011;42382;53.210;5.772;2023-07-24T03:40:01;16.58;;;4.90;;
56477;SDS011;42382;53.210;5.772;2023-07-24T03:42:28;13.40;;;5.25;;
56477;SDS011;42382;53.210;5.772;2023-07-24T03:44:55;17.33;;;6.05;;
56477;SDS011;42382;53.210;5.772;2023-07-24T03:47:22;12.27;;;4.93;;
56477;SDS011;42382;53.210;5.772;2023-07-24T03:49:48;18.02;;;5.85;;
56477;SDS011;42382;53.210;5.772;2023-07-24T03:52:14;18.77;;;4.90;;
56477;SDS011;42382;53.210;5.772;2023-07-24T03:54:40;14.85;;;5.35;;
56477;SDS011;42382;53.210;5.772;2023-07-24T03:57:06;12.55;;;4.35;;
56477;SDS011;42382;53.210;5.772;2023-07-24T03:59:32;14.48;;;4.82;;
56477;SDS011;42382;53.210;5.772;2023-07-24T04:01:57;13.50;;;4.95;;
56477;SDS011;42382;53.210;5.772;2023-07-24T04:04:23;11.52;;;4.88;;
56477;SDS011;42382;53.210;5.772;2023-07-24T04:06:49;12.77;;;5.10;;
56477;SDS011;42382;53.210;5.772;2023-07-24T04:09:15;14.60;;;4.93;;
56477;SDS011;42382;53.210;5.772;2023-07-24T04:11:42;10.60;;;4.00;;
56477;SDS011;42382;53.210;5.772;2023-07-24T04:14:08;17.88;;;4.32;;
56477;SDS011;42382;53.210;5.772;2023-07-24T04:16:33;13.60;;;4.40;;
56477;SDS011;42382;53.210;5.772;2023-07-24T04:18:59;15.23;;;4.85;;
56477;SDS011;42382;53.210;5.772;2023-07-24T04:21:25;14.13;;;4.85;;
56477;SDS011;42382;53.210;5.772;2023-07-24T04:23:50;13.75;;;4.60;;
56477;SDS011;42382;53.210;5.772;2023-07-24T04:26:16;11.95;;;4.18;;
56477;SDS011;42382;53.210;5.772;2023-07-24T04:28:41;14.25;;;4.65;;
56477;SDS011;42382;53.210;5.772;2023-07-24T04:31:07;17.75;;;5.00;;
56477;SDS011;42382;53.210;5.772;2023-07-24T04:33:33;13.45;;;5.05;;
56477;SDS011;42382;53.210;5.772;2023-07-24T04:35:58;11.55;;;4.63;;
56477;SDS011;42382;53.210;5.772;2023-07-24T04:38:24;13.88;;;4.10;;
56477;SDS011;42382;53.210;5.772;2023-07-24T04:40:50;13.40;;;4.65;;
56477;SDS011;42382;53.210;5.772;2023-07-24T04:43:15;12.68;;;4.13;;
56477;SDS011;42382;53.210;5.772;2023-07-24T04:45:41;10.93;;;4.47;;
56477;SDS011;42382;53.210;5.772;2023-07-24T04:48:06;17.75;;;5.00;;
56477;SDS011;42382;53.210;5.772;2023-07-24T04:50:32;14.68;;;5.07;;
56477;SDS011;42382;53.210;5.772;2023-07-24T04:52:58;14.88;;;5.05;;
56477;SDS011;42382;53.210;5.772;2023-07-24T04:55:24;10.82;;;4.10;;
56477;SDS011;42382;53.210;5.772;2023-07-24T04:57:50;14.65;;;4.15;;
56477;SDS011;42382;53.210;5.772;2023-07-24T05:00:16;14.82;;;5.10;;
56477;SDS011;42382;53.210;5.772;2023-07-24T05:02:41;17.42;;;4.90;;
56477;SDS011;42382;53.210;5.772;2023-07-24T05:05:07;13.70;;;4.95;;
56477;SDS011;42382;53.210;5.772;2023-07-24T05:07:33;11.80;;;4.80;;
56477;SDS011;42382;53.210;5.772;2023-07-24T05:09:59;14.25;;;4.53;;
56477;SDS011;42382;53.210;5.772;2023-07-24T05:12:24;12.90;;;4.60;;
56477;SDS011;42382;53.210;5.772;2023-07-24T05:14:50;15.57;;;4.63;;
56477;SDS011;42382;53.210;5.772;2023-07-24T05:17:16;11.65;;;4.35;;
56477;SDS011;42382;53.210;5.772;2023-07-24T05:19:41;12.73;;;4.07;;
56477;SDS011;42382;53.210;5.772;2023-07-24T05:22:07;13.65;;;4.72;;
56477;SDS011;42382;53.210;5.772;2023-07-24T05:24:35;11.95;;;4.15;;
56477;SDS011;42382;53.210;5.772;2023-07-24T05:27:01;14.20;;;4.97;;
56477;SDS011;42382;53.210;5.772;2023-07-24T05:29:28;11.75;;;4.78;;
56477;SDS011;42382;53.210;5.772;2023-07-24T05:31:53;17.70;;;4.93;;
56477;SDS011;42382;53.210;5.772;2023-07-24T05:34:19;16.10;;;5.47;;
56477;SDS011;42382;53.210;5.772;2023-07-24T05:36:44;12.68;;;4.75;;
56477;SDS011;42382;53.210;5.772;2023-07-24T05:39:10;16.33;;;4.90;;
56477;SDS011;42382;53.210;5.772;2023-07-24T05:41:36;13.65;;;5.03;;
56477;SDS011;42382;53.210;5.772;2023-07-24T05:44:01;15.25;;;5.13;;
56477;SDS011;42382;53.210;5.772;2023-07-24T05:46:27;16.52;;;5.60;;
56477;SDS011;42382;53.210;5.772;2023-07-24T05:48:52;17.30;;;6.47;;
56477;SDS011;42382;53.210;5.772;2023-07-24T05:51:18;15.75;;;5.07;;
56477;SDS011;42382;53.210;5.772;2023-07-24T05:53:44;17.73;;;4.93;;
56477;SDS011;42382;53.210;5.772;2023-07-24T05:56:09;15.02;;;4.78;;
56477;SDS011;42382;53.210;5.772;2023-07-24T05:58:35;16.52;;;5.38;;
56477;SDS011;42382;53.210;5.772;2023-07-24T06:01:00;12.30;;;4.38;;
56477;SDS011;42382;53.210;5.772;2023-07-24T06:03:26;13.32;;;5.00;;
56477;SDS011;42382;53.210;5.772;2023-07-24T06:05:53;13.52;;;4.80;;
56477;SDS011;42382;53.210;5.772;2023-07-24T06:08:19;17.30;;;4.72;;
56477;SDS011;42382;53.210;5.772;2023-07-24T06:10:46;16.67;;;5.15;;
56477;SDS011;42382;53.210;5.772;2023-07-24T06:13:12;14.63;;;4.68;;
56477;SDS011;42382;53.210;5.772;2023-07-24T06:15:38;16.38;;;4.38;;
56477;SDS011;42382;53.210;5.772;2023-07-24T06:18:04;13.95;;;4.53;;
56477;SDS011;42382;53.210;5.772;2023-07-24T06:20:29;17.05;;;5.70;;
56477;SDS011;42382;53.210;5.772;2023-07-24T06:22:55;18.25;;;5.65;;
56477;SDS011;42382;53.210;5.772;2023-07-24T06:25:21;17.08;;;5.55;;
56477;SDS011;42382;53.210;5.772;2023-07-24T06:27:46;14.30;;;4.50;;
56477;SDS011;42382;53.210;5.772;2023-07-24T06:30:12;21.83;;;5.93;;
56477;SDS011;42382;53.210;5.772;2023-07-24T06:32:37;22.23;;;5.78;;
56477;SDS011;42382;53.210;5.772;2023-07-24T06:35:03;17.80;;;4.63;;
56477;SDS011;42382;53.210;5.772;2023-07-24T06:37:29;14.90;;;4.45;;
56477;SDS011;42382;53.210;5.772;2023-07-24T06:39:55;16.52;;;5.68;;
56477;SDS011;42382;53.210;5.772;2023-07-24T06:42:21;12.25;;;5.18;;
56477;SDS011;42382;53.210;5.772;2023-07-24T06:44:46;18.10;;;4.97;;
56477;SDS011;42382;53.210;5.772;2023-07-24T06:47:12;11.10;;;4.22;;
56477;SDS011;42382;53.210;5.772;2023-07-24T06:49:38;20.92;;;5.88;;
56477;SDS011;42382;53.210;5.772;2023-07-24T06:52:03;17.58;;;5.10;;
56477;SDS011;42382;53.210;5.772;2023-07-24T06:54:29;17.27;;;5.25;;
56477;SDS011;42382;53.210;5.772;2023-07-24T06:56:55;11.52;;;4.47;;
56477;SDS011;42382;53.210;5.772;2023-07-24T06:59:20;11.07;;;4.93;;
56477;SDS011;42382;53.210;5.772;2023-07-24T07:01:46;17.70;;;5.25;;
56477;SDS011;42382;53.210;5.772;2023-07-24T07:04:12;17.65;;;5.15;;
56477;SDS011;42382;53.210;5.772;2023-07-24T07:06:37;11.43;;;4.30;;
56477;SDS011;42382;53.210;5.772;2023-07-24T07:09:03;15.02;;;4.50;;
56477;SDS011;42382;53.210;5.772;2023-07-24T07:11:29;13.52;;;3.85;;
56477;SDS011;42382;53.210;5.772;2023-07-24T07:13:55;14.50;;;4.07;;
56477;SDS011;42382;53.210;5.772;2023-07-24T07:16:21;15.68;;;5.65;;
56477;SDS011;42382;53.210;5.772;2023-07-24T07:18:47;12.55;;;4.88;;
56477;SDS011;42382;53.210;5.772;2023-07-24T07:21:12;15.20;;;4.63;;
56477;SDS011;42382;53.210;5.772;2023-07-24T07:23:38;12.52;;;4.38;;
56477;SDS011;42382;53.210;5.772;2023-07-24T07:26:03;16.30;;;4.95;;
56477;SDS011;42382;53.210;5.772;2023-07-24T07:28:29;14.40;;;4.50;;
56477;SDS011;42382;53.210;5.772;2023-07-24T07:30:55;12.05;;;4.10;;
56477;SDS011;42382;53.210;5.772;2023-07-24T07:33:20;12.35;;;3.95;;
56477;SDS011;42382;53.210;5.772;2023-07-24T07:35:47;14.27;;;4.32;;
56477;SDS011;42382;53.210;5.772;2023-07-24T07:38:12;10.90;;;4.20;;
56477;SDS011;42382;53.210;5.772;2023-07-24T07:40:38;12.65;;;4.18;;
56477;SDS011;42382;53.210;5.772;2023-07-24T07:43:04;13.00;;;5.00;;
56477;SDS011;42382;53.210;5.772;2023-07-24T07:45:30;10.43;;;3.88;;
56477;SDS011;42382;53.210;5.772;2023-07-24T07:47:55;10.15;;;3.60;;
56477;SDS011;42382;53.210;5.772;2023-07-24T07:50:21;12.55;;;4.43;;
56477;SDS011;42382;53.210;5.772;2023-07-24T07:52:52;14.65;;;4.82;;
56477;SDS011;42382;53.210;5.772;2023-07-24T07:55:18;10.70;;;4.32;;
56477;SDS011;42382;53.210;5.772;2023-07-24T07:57:44;9.93;;;3.92;;
56477;SDS011;42382;53.210;5.772;2023-07-24T08:00:10;13.60;;;4.22;;
56477;SDS011;42382;53.210;5.772;2023-07-24T08:02:36;11.23;;;3.72;;
56477;SDS011;42382;53.210;5.772;2023-07-24T08:05:08;12.85;;;4.47;;
56477;SDS011;42382;53.210;5.772;2023-07-24T08:07:34;12.13;;;4.20;;
56477;SDS011;42382;53.210;5.772;2023-07-24T08:10:00;10.48;;;4.00;;
56477;SDS011;42382;53.210;5.772;2023-07-24T08:12:26;9.20;;;3.25;;
56477;SDS011;42382;53.210;5.772;2023-07-24T08:14:52;9.85;;;3.88;;
56477;SDS011;42382;53.210;5.772;2023-07-24T08:17:18;10.93;;;3.63;;
56477;SDS011;42382;53.210;5.772;2023-07-24T08:19:44;10.15;;;3.80;;
56477;SDS011;42382;53.210;5.772;2023-07-24T08:22:10;13.57;;;4.55;;
56477;SDS011;42382;53.210;5.772;2023-07-24T08:24:36;15.10;;;4.57;;
56477;SDS011;42382;53.210;5.772;2023-07-24T08:27:02;17.58;;;5.25;;
56477;SDS011;42382;53.210;5.772;2023-07-24T08:29:27;19.92;;;5.38;;
56477;SDS011;42382;53.210;5.772;2023-07-24T08:31:53;8.45;;;4.30;;
56477;SDS011;42382;53.210;5.772;2023-07-24T08:34:19;10.23;;;5.05;;
56477;SDS011;42382;53.210;5.772;2023-07-24T08:36:44;11.82;;;4.82;;
56477;SDS011;42382;53.210;5.772;2023-07-24T08:39:10;11.43;;;5.13;;
56477;SDS011;42382;53.210;5.772;2023-07-24T08:41:36;9.95;;;5.07;;
56477;SDS011;42382;53.210;5.772;2023-07-24T08:44:03;12.30;;;5.40;;
56477;SDS011;42382;53.210;5.772;2023-07-24T08:46:38;12.15;;;4.70;;
56477;SDS011;42382;53.210;5.772;2023-07-24T08:49:13;10.02;;;5.13;;
56477;SDS011;42382;53.210;5.772;2023-07-24T08:51:40;10.38;;;5.05;;
56477;SDS011;42382;53.210;5.772;2023-07-24T08:54:06;15.65;;;5.38;;
56477;SDS011;42382;53.210;5.772;2023-07-24T08:56:32;11.93;;;5.43;;
56477;SDS011;42382;53.210;5.772;2023-07-24T08:58:58;13.80;;;5.95;;
56477;SDS011;42382;53.210;5.772;2023-07-24T09:01:24;10.93;;;6.53;;
56477;SDS011;42382;53.210;5.772;2023-07-24T09:03:50;7.93;;;6.45;;
56477;SDS011;42382;53.210;5.772;2023-07-24T09:06:16;12.05;;;6.95;;
56477;SDS011;42382;53.210;5.772;2023-07-24T09:08:42;11.82;;;5.75;;
56477;SDS011;42382;53.210;5.772;2023-07-24T09:11:08;7.97;;;5.35;;
56477;SDS011;42382;53.210;5.772;2023-07-24T09:13:36;5.85;;;5.20;;
56477;SDS011;42382;53.210;5.772;2023-07-24T09:16:03;8.18;;;4.20;;
56477;SDS011;42382;53.210;5.772;2023-07-24T09:18:38;5.32;;;4.10;;
56477;SDS011;42382;53.210;5.772;2023-07-24T09:21:08;6.10;;;4.32;;
56477;SDS011;42382;53.210;5.772;2023-07-24T09:23:37;7.93;;;5.03;;
56477;SDS011;42382;53.210;5.772;2023-07-24T09:26:06;7.63;;;4.22;;
56477;SDS011;42382;53.210;5.772;2023-07-24T09:28:33;5.20;;;4.05;;
56477;SDS011;42382;53.210;5.772;2023-07-24T09:30:59;6.70;;;4.57;;
56477;SDS011;42382;53.210;5.772;2023-07-24T09:33:39;6.65;;;4.22;;
56477;SDS011;42382;53.210;5.772;2023-07-24T09:36:05;8.23;;;3.95;;
56477;SDS011;42382;53.210;5.772;2023-07-24T09:38:33;6.88;;;3.30;;
56477;SDS011;42382;53.210;5.772;2023-07-24T09:41:00;5.82;;;3.80;;
56477;SDS011;42382;53.210;5.772;2023-07-24T09:43:30;4.38;;;3.03;;
56477;SDS011;42382;53.210;5.772;2023-07-24T09:45:56;4.28;;;3.50;;
56477;SDS011;42382;53.210;5.772;2023-07-24T09:48:23;7.40;;;4.25;;
56477;SDS011;42382;53.210;5.772;2023-07-24T09:50:54;7.68;;;4.05;;
56477;SDS011;42382;53.210;5.772;2023-07-24T09:53:22;10.07;;;4.55;;
56477;SDS011;42382;53.210;5.772;2023-07-24T09:56:04;8.10;;;4.80;;
56477;SDS011;42382;53.210;5.772;2023-07-24T09:58:35;4.70;;;3.42;;
56477;SDS011;42382;53.210;5.772;2023-07-24T10:01:02;5.28;;;3.50;;
56477;SDS011;42382;53.210;5.772;2023-07-24T10:03:31;5.82;;;3.80;;
56477;SDS011;42382;53.210;5.772;2023-07-24T10:05:59;4.47;;;4.03;;
56477;SDS011;42382;53.210;5.772;2023-07-24T10:08:25;5.15;;;4.30;;
56477;SDS011;42382;53.210;5.772;2023-07-24T10:10:52;4.40;;;3.85;;
56477;SDS011;42382;53.210;5.772;2023-07-24T10:13:18;7.93;;;4.00;;
56477;SDS011;42382;53.210;5.772;2023-07-24T10:15:46;4.97;;;4.32;;
56477;SDS011;42382;53.210;5.772;2023-07-24T10:18:16;4.00;;;3.60;;
56477;SDS011;42382;53.210;5.772;2023-07-24T10:20:43;5.47;;;4.05;;
56477;SDS011;42382;53.210;5.772;2023-07-24T10:23:10;6.72;;;4.57;;
56477;SDS011;42382;53.210;5.772;2023-07-24T10:25:37;4.13;;;3.45;;
56477;SDS011;42382;53.210;5.772;2023-07-24T10:28:09;4.63;;;4.03;;
56477;SDS011;42382;53.210;5.772;2023-07-24T10:30:37;4.03;;;3.42;;
56477;SDS011;42382;53.210;5.772;2023-07-24T10:33:10;5.53;;;4.07;;
56477;SDS011;42382;53.210;5.772;2023-07-24T10:35:45;5.43;;;3.90;;
56477;SDS011;42382;53.210;5.772;2023-07-24T10:38:13;4.18;;;3.70;;
56477;SDS011;42382;53.210;5.772;2023-07-24T10:40:40;4.32;;;3.33;;
56477;SDS011;42382;53.210;5.772;2023-07-24T10:43:08;5.30;;;2.67;;
56477;SDS011;42382;53.210;5.772;2023-07-24T10:45:51;4.28;;;2.95;;
56477;SDS011;42382;53.210;5.772;2023-07-24T10:48:19;4.25;;;3.08;;
56477;SDS011;42382;53.210;5.772;2023-07-24T10:50:46;4.75;;;2.50;;
56477;SDS011;42382;53.210;5.772;2023-07-24T10:53:14;5.03;;;2.55;;
56477;SDS011;42382;53.210;5.772;2023-07-24T10:55:41;2.88;;;2.42;;
56477;SDS011;42382;53.210;5.772;2023-07-24T10:58:12;5.07;;;2.33;;
56477;SDS011;42382;53.210;5.772;2023-07-24T11:00:39;4.05;;;2.35;;
56477;SDS011;42382;53.210;5.772;2023-07-24T11:03:08;3.50;;;2.10;;
56477;SDS011;42382;53.210;5.772;2023-07-24T11:05:41;3.00;;;2.20;;
56477;SDS011;42382;53.210;5.772;2023-07-24T11:08:09;4.03;;;2.22;;
56477;SDS011;42382;53.210;5.772;2023-07-24T11:10:48;3.28;;;1.88;;
56477;SDS011;42382;53.210;5.772;2023-07-24T11:13:15;2.85;;;2.03;;
56477;SDS011;42382;53.210;5.772;2023-07-24T11:15:42;3.55;;;2.17;;
56477;SDS011;42382;53.210;5.772;2023-07-24T11:18:07;2.88;;;1.90;;
56477;SDS011;42382;53.210;5.772;2023-07-24T11:20:36;1.95;;;1.75;;
56477;SDS011;42382;53.210;5.772;2023-07-24T11:23:12;3.70;;;1.90;;
56477;SDS011;42382;53.210;5.772;2023-07-24T11:25:39;1.73;;;1.63;;
56477;SDS011;42382;53.210;5.772;2023-07-24T11:28:05;2.05;;;1.23;;
56477;SDS011;42382;53.210;5.772;2023-07-24T11:30:32;1.67;;;1.40;;
56477;SDS011;42382;53.210;5.772;2023-07-24T11:32:59;2.42;;;1.40;;
56477;SDS011;42382;53.210;5.772;2023-07-24T11:35:27;3.22;;;0.98;;
56477;SDS011;42382;53.210;5.772;2023-07-24T11:37:53;1.73;;;0.88;;
56477;SDS011;42382;53.210;5.772;2023-07-24T11:40:18;1.10;;;0.60;;
56477;SDS011;42382;53.210;5.772;2023-07-24T11:42:46;1.58;;;0.60;;
56477;SDS011;42382;53.210;5.772;2023-07-24T11:45:13;2.53;;;0.60;;
56477;SDS011;42382;53.210;5.772;2023-07-24T11:47:42;1.08;;;0.30;;
56477;SDS011;42382;53.210;5.772;2023-07-24T11:50:09;1.83;;;0.20;;
56477;SDS011;42382;53.210;5.772;2023-07-24T11:52:39;1.75;;;0.35;;
56477;SDS011;42382;53.210;5.772;2023-07-24T11:55:10;2.03;;;0.40;;
56477;SDS011;42382;53.210;5.772;2023-07-24T11:57:37;1.13;;;0.45;;
56477;SDS011;42382;53.210;5.772;2023-07-24T12:00:03;1.48;;;0.20;;
56477;SDS011;42382;53.210;5.772;2023-07-24T12:02:31;5.00;;;0.45;;
56477;SDS011;42382;53.210;5.772;2023-07-24T12:04:59;1.92;;;0.20;;
56477;SDS011;42382;53.210;5.772;2023-07-24T12:07:31;0.80;;;0.30;;
56477;SDS011;42382;53.210;5.772;2023-07-24T12:10:03;0.85;;;0.20;;
56477;SDS011;42382;53.210;5.772;2023-07-24T12:15:11;1.55;;;0.22;;
56477;SDS011;42382;53.210;5.772;2023-07-24T12:17:37;0.68;;;0.20;;
56477;SDS011;42382;53.210;5.772;2023-07-24T12:20:03;3.03;;;0.32;;
56477;SDS011;42382;53.210;5.772;2023-07-24T12:22:31;0.82;;;0.20;;
56477;SDS011;42382;53.210;5.772;2023-07-24T12:24:57;2.42;;;0.20;;
56477;SDS011;42382;53.210;5.772;2023-07-24T12:27:23;2.78;;;0.30;;
56477;SDS011;42382;53.210;5.772;2023-07-24T12:29:49;6.60;;;0.57;;
56477;SDS011;42382;53.210;5.772;2023-07-24T12:32:18;6.70;;;0.57;;
56477;SDS011;42382;53.210;5.772;2023-07-24T12:34:48;2.50;;;0.32;;
56477;SDS011;42382;53.210;5.772;2023-07-24T12:37:15;8.20;;;0.57;;
56477;SDS011;42382;53.210;5.772;2023-07-24T12:39:42;5.00;;;0.60;;
56477;SDS011;42382;53.210;5.772;2023-07-24T12:42:12;5.07;;;0.55;;
56477;SDS011;42382;53.210;5.772;2023-07-24T12:44:38;4.00;;;0.68;;
56477;SDS011;42382;53.210;5.772;2023-07-24T12:47:03;3.75;;;1.15;;
56477;SDS011;42382;53.210;5.772;2023-07-24T12:49:29;1.80;;;0.40;;
56477;SDS011;42382;53.210;5.772;2023-07-24T12:51:55;2.97;;;0.70;;
56477;SDS011;42382;53.210;5.772;2023-07-24T12:54:21;2.22;;;0.40;;
56477;SDS011;42382;53.210;5.772;2023-07-24T12:56:48;3.55;;;0.90;;
56477;SDS011;42382;53.210;5.772;2023-07-24T12:59:14;3.70;;;0.93;;
56477;SDS011;42382;53.210;5.772;2023-07-24T13:01:40;2.45;;;0.30;;
56477;SDS011;42382;53.210;5.772;2023-07-24T13:04:06;4.13;;;0.75;;
56477;SDS011;42382;53.210;5.772;2023-07-24T13:06:33;4.55;;;0.60;;
56477;SDS011;42382;53.210;5.772;2023-07-24T13:08:58;4.65;;;0.57;;
56477;SDS011;42382;53.210;5.772;2023-07-24T13:11:24;4.88;;;0.60;;
56477;SDS011;42382;53.210;5.772;2023-07-24T13:13:50;4.03;;;0.52;;
56477;SDS011;42382;53.210;5.772;2023-07-24T13:16:16;4.95;;;0.70;;
56477;SDS011;42382;53.210;5.772;2023-07-24T13:18:42;8.60;;;0.73;;
56477;SDS011;42382;53.210;5.772;2023-07-24T13:21:08;5.07;;;0.55;;
56477;SDS011;42382;53.210;5.772;2023-07-24T13:23:33;4.38;;;0.85;;
56477;SDS011;42382;53.210;5.772;2023-07-24T13:25:59;4.40;;;0.40;;
56477;SDS011;42382;53.210;5.772;2023-07-24T13:28:25;2.40;;;0.43;;
56477;SDS011;42382;53.210;5.772;2023-07-24T13:30:51;3.05;;;0.30;;
56477;SDS011;42382;53.210;5.772;2023-07-24T13:33:16;3.80;;;0.50;;
56477;SDS011;42382;53.210;5.772;2023-07-24T13:35:42;3.63;;;0.70;;
56477;SDS011;42382;53.210;5.772;2023-07-24T13:38:08;4.18;;;0.35;;
56477;SDS011;42382;53.210;5.772;2023-07-24T13:40:34;4.20;;;0.50;;
56477;SDS011;42382;53.210;5.772;2023-07-24T13:43:00;4.05;;;0.40;;
56477;SDS011;42382;53.210;5.772;2023-07-24T13:45:27;3.97;;;0.20;;
56477;SDS011;42382;53.210;5.772;2023-07-24T13:47:53;2.15;;;0.22;;
56477;SDS011;42382;53.210;5.772;2023-07-24T13:50:19;2.92;;;0.52;;
56477;SDS011;42382;53.210;5.772;2023-07-24T13:52:45;2.63;;;0.50;;
56477;SDS011;42382;53.210;5.772;2023-07-24T13:55:11;6.88;;;0.77;;
56477;SDS011;42382;53.210;5.772;2023-07-24T13:57:36;5.57;;;0.60;;
56477;SDS011;42382;53.210;5.772;2023-07-24T14:00:02;3.53;;;0.50;;
56477;SDS011;42382;53.210;5.772;2023-07-24T14:02:28;3.20;;;0.65;;
56477;SDS011;42382;53.210;5.772;2023-07-24T14:04:53;5.57;;;1.23;;
56477;SDS011;42382;53.210;5.772;2023-07-24T14:07:19;2.65;;;0.57;;
56477;SDS011;42382;53.210;5.772;2023-07-24T14:09:45;5.28;;;0.68;;
56477;SDS011;42382;53.210;5.772;2023-07-24T14:12:10;2.67;;;0.60;;
56477;SDS011;42382;53.210;5.772;2023-07-24T14:14:36;3.38;;;0.60;;
56477;SDS011;42382;53.210;5.772;2023-07-24T14:17:02;4.90;;;0.52;;
56477;SDS011;42382;53.210;5.772;2023-07-24T14:19:27;4.10;;;0.75;;
56477;SDS011;42382;53.210;5.772;2023-07-24T14:21:53;3.70;;;0.50;;
56477;SDS011;42382;53.210;5.772;2023-07-24T14:24:19;2.90;;;0.45;;
56477;SDS011;42382;53.210;5.772;2023-07-24T14:26:45;3.70;;;0.60;;
56477;SDS011;42382;53.210;5.772;2023-07-24T14:29:10;2.65;;;0.60;;
56477;SDS011;42382;53.210;5.772;2023-07-24T14:31:36;4.07;;;0.52;;
56477;SDS011;42382;53.210;5.772;2023-07-24T14:34:02;4.75;;;0.73;;
56477;SDS011;42382;53.210;5.772;2023-07-24T14:36:28;8.50;;;0.50;;
56477;SDS011;42382;53.210;5.772;2023-07-24T14:39:02;3.78;;;0.50;;
56477;SDS011;42382;53.210;5.772;2023-07-24T14:41:28;4.32;;;0.55;;
56477;SDS011;42382;53.210;5.772;2023-07-24T14:43:53;5.78;;;0.70;;
56477;SDS011;42382;53.210;5.772;2023-07-24T14:46:19;4.35;;;0.40;;